createdAt,value
2023-06-18T00:01:26.505Z,17.20
2023-06-18T00:04:05.627Z,17.30
2023-06-18T00:06:44.571Z,17.20
2023-06-18T00:09:13.217Z,17.10
2023-06-18T00:11:41.811Z,17.20
2023-06-18T00:14:10.486Z,17.10
2023-06-18T00:16:38.942Z,17.10
2023-06-18T00:19:07.383Z,17.00
2023-06-18T00:21:37.266Z,17.00
2023-06-18T00:24:06.501Z,16.90
2023-06-18T00:26:37.452Z,16.90
2023-06-18T00:29:06.512Z,16.80
2023-06-18T00:31:37.989Z,16.70
2023-06-18T00:34:08.335Z,16.70
2023-06-18T00:36:44.542Z,16.70
2023-06-18T00:39:13.132Z,16.60
2023-06-18T00:41:41.509Z,16.60
2023-06-18T00:44:09.902Z,16.60
2023-06-18T00:46:38.649Z,16.60
2023-06-18T00:49:09.427Z,16.60
2023-06-18T00:51:45.935Z,16.60
2023-06-18T00:54:16.008Z,16.50
2023-06-18T00:56:52.035Z,16.40
2023-06-18T00:59:24.112Z,16.40
2023-06-18T01:01:56.085Z,16.30
2023-06-18T01:04:27.503Z,16.30
2023-06-18T01:06:58.782Z,16.30
2023-06-18T01:09:28.356Z,16.20
2023-06-18T01:11:56.979Z,16.20
2023-06-18T01:14:27.997Z,16.10
2023-06-18T01:16:58.065Z,16.10
2023-06-18T01:19:43.289Z,16.00
2023-06-18T01:24:53.208Z,15.90
2023-06-18T01:27:22.927Z,15.90
2023-06-18T01:29:52.440Z,15.90
2023-06-18T01:32:22.271Z,15.80
2023-06-18T01:34:54.970Z,15.80
2023-06-18T01:37:46.557Z,15.80
2023-06-18T01:40:22.501Z,15.70
2023-06-18T01:42:57.942Z,15.70
2023-06-18T01:45:29.082Z,15.80
2023-06-18T01:48:02.986Z,15.80
2023-06-18T01:50:32.922Z,15.80
2023-06-18T01:53:04.103Z,15.70
2023-06-18T01:55:35.881Z,15.70
2023-06-18T01:58:04.366Z,15.70
2023-06-18T02:00:32.751Z,15.60
2023-06-18T02:03:03.288Z,15.60
2023-06-18T02:05:35.903Z,15.50
2023-06-18T02:08:06.107Z,15.50
2023-06-18T02:10:34.553Z,15.40
2023-06-18T02:13:02.890Z,15.40
2023-06-18T02:15:32.207Z,15.40
2023-06-18T02:18:00.638Z,15.40
2023-06-18T02:20:29.202Z,15.30
2023-06-18T02:22:57.805Z,15.20
2023-06-18T02:25:31.157Z,15.10
2023-06-18T02:28:01.187Z,15.10
2023-06-18T02:30:31.973Z,15.10
2023-06-18T02:33:02.313Z,15.10
2023-06-18T02:35:32.882Z,15.00
2023-06-18T02:38:01.366Z,15.00
2023-06-18T02:40:31.193Z,14.90
2023-06-18T02:42:59.882Z,14.80
2023-06-18T02:45:30.699Z,14.80
2023-06-18T02:47:59.229Z,14.70
2023-06-18T02:50:27.692Z,14.70
2023-06-18T02:52:57.077Z,14.70
2023-06-18T02:55:25.704Z,14.70
2023-06-18T02:57:55.584Z,14.60
2023-06-18T03:00:24.224Z,14.60
2023-06-18T03:02:53.159Z,14.60
2023-06-18T03:05:24.503Z,14.50
2023-06-18T03:07:53.278Z,14.40
2023-06-18T03:10:22.723Z,14.50
2023-06-18T03:12:56.032Z,14.40
2023-06-18T03:15:44.758Z,14.40
2023-06-18T03:18:14.896Z,14.40
2023-06-18T03:20:44.766Z,14.40
2023-06-18T03:23:13.132Z,14.40
2023-06-18T03:25:45.023Z,14.30
2023-06-18T03:28:20.728Z,14.40
2023-06-18T03:30:49.532Z,14.30
2023-06-18T03:33:19.225Z,14.30
2023-06-18T03:35:51.145Z,14.30
2023-06-18T03:38:19.884Z,14.30
2023-06-18T03:40:48.655Z,14.40
2023-06-18T03:43:19.863Z,14.40
2023-06-18T03:45:50.285Z,14.50
2023-06-18T03:48:20.158Z,14.60
2023-06-18T03:50:49.123Z,14.70
2023-06-18T03:53:17.726Z,14.70
2023-06-18T03:55:47.215Z,14.80
2023-06-18T03:58:20.219Z,14.80
2023-06-18T04:00:52.036Z,14.90
2023-06-18T04:03:21.460Z,14.90
2023-06-18T04:05:49.953Z,15.00
2023-06-18T04:08:18.957Z,15.10
2023-06-18T04:10:48.418Z,15.20
2023-06-18T04:13:18.055Z,15.30
2023-06-18T04:15:47.657Z,15.40
2023-06-18T04:18:20.044Z,15.50
2023-06-18T04:20:50.922Z,15.50
2023-06-18T04:23:20.706Z,15.60
2023-06-18T04:25:49.113Z,15.60
2023-06-18T04:28:18.758Z,15.80
2023-06-18T04:30:47.199Z,15.90
2023-06-18T04:33:19.130Z,16.00
2023-06-18T04:35:48.824Z,16.00
2023-06-18T04:38:17.287Z,16.00
2023-06-18T04:40:47.139Z,16.10
2023-06-18T04:43:18.919Z,16.30
2023-06-18T04:45:48.350Z,16.40
2023-06-18T04:48:16.864Z,16.50
2023-06-18T04:50:49.487Z,16.60
2023-06-18T04:53:20.676Z,16.70
2023-06-18T04:55:50.288Z,16.80
2023-06-18T04:58:21.820Z,16.90
2023-06-18T05:00:53.471Z,17.00
2023-06-18T05:03:22.129Z,17.10
2023-06-18T05:05:52.193Z,17.20
2023-06-18T05:08:21.499Z,17.40
2023-06-18T05:10:52.058Z,17.60
2023-06-18T05:13:21.940Z,17.70
2023-06-18T05:15:50.402Z,17.80
2023-06-18T05:18:18.727Z,18.00
2023-06-18T05:20:47.130Z,18.10
2023-06-18T05:23:16.906Z,18.20
2023-06-18T05:25:45.524Z,18.40
2023-06-18T05:28:14.253Z,18.50
2023-06-18T05:30:48.028Z,18.70
2023-06-18T05:33:17.096Z,18.80
2023-06-18T05:35:49.427Z,19.00
2023-06-18T05:38:19.177Z,19.20
2023-06-18T05:40:47.963Z,19.30
2023-06-18T05:43:17.396Z,19.60
2023-06-18T05:45:50.943Z,19.80
2023-06-18T05:48:19.510Z,20.00
2023-06-18T05:51:00.343Z,20.20
2023-06-18T05:53:30.969Z,20.40
2023-06-18T05:55:59.381Z,20.60
2023-06-18T05:58:28.198Z,20.80
2023-06-18T06:00:56.695Z,21.00
2023-06-18T06:03:25.088Z,21.10
2023-06-18T06:05:53.502Z,21.40
2023-06-18T06:08:21.829Z,21.50
2023-06-18T06:10:56.469Z,21.60
2023-06-18T06:13:24.955Z,21.70
2023-06-18T06:15:59.983Z,21.80
2023-06-18T06:18:28.901Z,21.90
2023-06-18T06:20:57.307Z,22.10
2023-06-18T06:23:26.198Z,22.20
2023-06-18T06:25:56.067Z,22.30
2023-06-18T06:28:24.531Z,22.30
2023-06-18T06:30:52.916Z,22.30
2023-06-18T06:33:23.746Z,22.40
2023-06-18T06:35:56.102Z,22.60
2023-06-18T06:38:24.938Z,22.60
2023-06-18T06:40:54.317Z,22.80
2023-06-18T06:43:26.254Z,23.00
2023-06-18T06:46:32.870Z,23.10
2023-06-18T06:49:33.306Z,23.30
2023-06-18T06:52:10.278Z,23.60
2023-06-18T06:54:38.867Z,23.50
2023-06-18T06:57:09.586Z,23.60
2023-06-18T06:59:39.360Z,23.70
2023-06-18T07:02:08.146Z,23.90
2023-06-18T07:04:38.398Z,24.20
2023-06-18T07:07:06.787Z,24.40
2023-06-18T07:09:35.195Z,24.60
2023-06-18T07:12:03.587Z,25.00
2023-06-18T07:14:31.978Z,25.00
2023-06-18T07:17:01.821Z,24.60
2023-06-18T07:19:30.687Z,24.40
2023-06-18T07:21:59.049Z,24.50
2023-06-18T07:24:27.461Z,24.50
2023-06-18T07:26:55.942Z,24.70
2023-06-18T07:29:24.291Z,25.00
2023-06-18T07:31:54.772Z,25.20
2023-06-18T07:34:26.609Z,25.60
2023-06-18T07:36:55.144Z,25.80
2023-06-18T07:39:27.179Z,25.90
2023-06-18T07:41:55.493Z,26.00
2023-06-18T07:44:23.846Z,26.40
2023-06-18T07:46:54.265Z,26.50
2023-06-18T07:49:32.318Z,26.60
2023-06-18T07:52:02.845Z,26.50
2023-06-18T07:54:33.910Z,26.70
2023-06-18T07:57:02.319Z,26.90
2023-06-18T07:59:30.799Z,27.10
2023-06-18T08:01:59.216Z,27.20
2023-06-18T08:04:27.881Z,27.20
2023-06-18T08:06:56.313Z,27.20
2023-06-18T08:09:26.196Z,27.30
2023-06-18T08:11:54.563Z,27.60
2023-06-18T08:14:23.177Z,27.70
2023-06-18T08:16:53.931Z,27.80
2023-06-18T08:19:22.364Z,27.90
2023-06-18T08:21:50.822Z,28.20
2023-06-18T08:24:19.263Z,28.40
2023-06-18T08:26:49.114Z,28.40
2023-06-18T08:29:17.977Z,28.60
2023-06-18T08:31:46.560Z,28.80
2023-06-18T08:34:25.758Z,28.80
2023-06-18T08:37:01.394Z,28.90
2023-06-18T08:39:30.317Z,29.10
2023-06-18T08:42:01.362Z,29.10
2023-06-18T08:44:30.134Z,29.30
2023-06-18T08:47:01.305Z,29.40
2023-06-18T08:49:32.418Z,29.40
2023-06-18T08:52:04.702Z,29.50
2023-06-18T08:54:34.897Z,29.40
2023-06-18T08:57:12.976Z,29.30
2023-06-18T08:59:44.606Z,29.40
2023-06-18T09:02:14.001Z,29.50
2023-06-18T09:04:42.922Z,29.70
2023-06-18T09:07:11.344Z,29.90
2023-06-18T09:09:39.714Z,30.00
2023-06-18T09:12:10.221Z,30.10
2023-06-18T09:14:38.580Z,30.20
2023-06-18T09:17:08.090Z,30.20
2023-06-18T09:19:36.887Z,30.10
2023-06-18T09:22:14.654Z,29.90
2023-06-18T09:24:43.209Z,30.00
2023-06-18T09:27:27.975Z,30.30
2023-06-18T09:29:56.382Z,30.30
2023-06-18T09:32:24.803Z,30.70
2023-06-18T09:34:53.206Z,30.60
2023-06-18T09:37:21.731Z,30.60
2023-06-18T09:39:54.734Z,30.90
2023-06-18T09:42:31.783Z,30.90
2023-06-18T09:45:01.770Z,31.00
2023-06-18T09:47:31.033Z,30.90
2023-06-18T09:49:59.537Z,31.00
2023-06-18T09:52:29.290Z,31.10
2023-06-18T09:55:00.798Z,30.80
2023-06-18T09:57:32.536Z,30.40
2023-06-18T10:00:15.111Z,30.00
2023-06-18T10:02:44.246Z,29.80
2023-06-18T10:05:12.603Z,29.50
2023-06-18T10:07:42.069Z,29.50
2023-06-18T10:10:14.664Z,30.00
2023-06-18T10:12:45.121Z,30.50
2023-06-18T10:15:14.680Z,30.60
2023-06-18T10:17:47.353Z,30.40
2023-06-18T10:20:19.099Z,30.40
2023-06-18T10:22:50.351Z,30.70
2023-06-18T10:25:21.182Z,30.60
2023-06-18T10:27:51.660Z,30.90
2023-06-18T10:30:22.392Z,30.90
2023-06-18T10:32:51.405Z,31.10
2023-06-18T10:35:20.314Z,30.90
2023-06-18T10:37:49.216Z,30.70
2023-06-18T10:40:17.600Z,30.00
2023-06-18T10:42:49.803Z,30.30
2023-06-18T10:45:20.285Z,30.30
2023-06-18T10:47:49.010Z,30.30
2023-06-18T10:50:20.739Z,30.50
2023-06-18T10:52:51.334Z,30.40
2023-06-18T10:55:31.419Z,30.60
2023-06-18T10:58:06.432Z,30.20
2023-06-18T11:00:42.040Z,29.90
2023-06-18T11:03:14.891Z,29.40
2023-06-18T11:05:48.348Z,29.20
2023-06-18T11:08:18.642Z,29.10
2023-06-18T11:10:49.745Z,29.20
2023-06-18T11:13:19.050Z,29.50
2023-06-18T11:15:59.442Z,29.60
2023-06-18T11:18:29.580Z,29.70
2023-06-18T11:20:58.589Z,29.60
2023-06-18T11:23:28.208Z,29.50
2023-06-18T11:25:56.589Z,29.40
2023-06-18T11:28:26.280Z,29.50
2023-06-18T11:31:02.328Z,29.60
2023-06-18T11:33:38.124Z,29.60
2023-06-18T11:36:11.763Z,29.60
2023-06-18T11:38:41.059Z,29.40
2023-06-18T11:41:11.772Z,29.40
2023-06-18T11:43:48.161Z,29.20
2023-06-18T11:46:36.827Z,29.10
2023-06-18T11:49:14.968Z,29.30
2023-06-18T11:51:43.524Z,29.40
2023-06-18T11:54:12.419Z,29.30
2023-06-18T11:56:40.801Z,29.30
2023-06-18T11:59:09.228Z,29.30
2023-06-18T12:01:39.125Z,29.50
2023-06-18T12:04:09.718Z,29.80
2023-06-18T12:06:39.324Z,30.10
2023-06-18T12:09:09.573Z,30.40
2023-06-18T12:11:47.552Z,30.50
2023-06-18T12:14:21.808Z,30.30
2023-06-18T12:16:57.425Z,30.50
2023-06-18T12:19:26.812Z,30.40
2023-06-18T12:21:55.296Z,30.50
2023-06-18T12:24:23.841Z,30.60
2023-06-18T12:26:52.946Z,30.90
2023-06-18T12:29:22.950Z,30.90
2023-06-18T12:32:05.321Z,30.70
2023-06-18T12:34:36.588Z,30.40
2023-06-18T12:37:07.676Z,30.40
2023-06-18T12:39:39.179Z,30.30
2023-06-18T12:42:11.506Z,30.30
2023-06-18T12:44:41.845Z,30.20
2023-06-18T12:47:14.044Z,30.10
2023-06-18T12:49:42.622Z,30.20
2023-06-18T12:52:17.550Z,30.40
2023-06-18T12:54:46.726Z,30.50
2023-06-18T12:57:16.286Z,30.40
2023-06-18T12:59:49.823Z,30.40
2023-06-18T13:02:19.832Z,30.40
2023-06-18T13:04:48.664Z,30.00
2023-06-18T13:07:19.317Z,29.70
2023-06-18T13:09:49.991Z,29.70
2023-06-18T13:12:20.661Z,29.50
2023-06-18T13:14:49.301Z,29.40
2023-06-18T13:17:19.104Z,29.10
2023-06-18T13:19:58.919Z,29.00
2023-06-18T13:22:29.031Z,28.80
2023-06-18T13:24:58.608Z,28.70
2023-06-18T13:27:30.327Z,28.70
2023-06-18T13:30:01.285Z,28.60
2023-06-18T13:32:33.516Z,28.60
2023-06-18T13:35:04.632Z,28.70
2023-06-18T13:37:35.431Z,28.70
2023-06-18T13:40:04.401Z,28.80
2023-06-18T13:42:32.882Z,28.70
2023-06-18T13:45:01.296Z,28.60
2023-06-18T13:47:29.882Z,28.50
2023-06-18T13:49:59.802Z,28.40
2023-06-18T13:52:28.188Z,28.30
2023-06-18T13:54:58.671Z,28.20
2023-06-18T13:57:27.096Z,28.10
2023-06-18T13:59:58.053Z,28.20
2023-06-18T14:02:26.620Z,28.20
2023-06-18T14:04:55.842Z,28.20
2023-06-18T14:07:26.205Z,28.10
2023-06-18T14:09:54.599Z,28.00
2023-06-18T14:12:23.069Z,28.00
2023-06-18T14:14:51.700Z,28.00
2023-06-18T14:17:20.111Z,28.00
2023-06-18T14:19:48.499Z,28.00
2023-06-18T14:22:19.371Z,28.00
2023-06-18T14:24:49.124Z,28.00
2023-06-18T14:27:17.566Z,27.90
2023-06-18T14:29:46.030Z,27.80
2023-06-18T14:32:16.707Z,27.80
2023-06-18T14:34:45.095Z,27.70
2023-06-18T14:37:13.539Z,27.70
2023-06-18T14:39:42.025Z,27.60
2023-06-18T14:42:11.837Z,27.70
2023-06-18T14:44:40.223Z,27.60
2023-06-18T14:47:09.075Z,27.60
2023-06-18T14:49:40.002Z,27.40
2023-06-18T14:52:08.931Z,27.40
2023-06-18T14:54:37.563Z,27.20
2023-06-18T14:57:06.344Z,27.20
2023-06-18T14:59:37.589Z,27.20
2023-06-18T15:02:23.893Z,27.20
2023-06-18T15:04:58.234Z,27.20
2023-06-18T15:07:27.358Z,27.20
2023-06-18T15:09:58.213Z,27.20
2023-06-18T15:12:28.639Z,27.20
2023-06-18T15:14:58.538Z,27.20
2023-06-18T15:17:27.030Z,27.20
2023-06-18T15:19:57.559Z,27.20
2023-06-18T15:22:28.527Z,27.00
2023-06-18T15:24:59.156Z,26.90
2023-06-18T15:27:28.022Z,26.80
2023-06-18T15:29:56.493Z,26.70
2023-06-18T15:32:26.539Z,26.50
2023-06-18T15:34:55.071Z,26.40
2023-06-18T15:37:23.486Z,26.40
2023-06-18T15:39:51.883Z,26.40
2023-06-18T15:42:22.598Z,26.50
2023-06-18T15:44:51.023Z,26.60
2023-06-18T15:47:19.547Z,26.60
2023-06-18T15:49:51.870Z,26.60
2023-06-18T15:52:21.056Z,26.60
2023-06-18T15:54:49.421Z,26.50
2023-06-18T15:57:17.830Z,26.60
2023-06-18T15:59:46.257Z,26.60
2023-06-18T16:02:14.697Z,26.60
2023-06-18T16:04:43.101Z,26.60
2023-06-18T16:07:12.883Z,26.60
2023-06-18T16:09:43.665Z,26.60
2023-06-18T16:12:12.206Z,26.60
2023-06-18T16:14:40.610Z,26.60
2023-06-18T16:17:08.948Z,26.60
2023-06-18T16:19:38.017Z,26.60
2023-06-18T16:22:06.377Z,26.50
2023-06-18T16:24:37.214Z,26.50
2023-06-18T16:27:06.343Z,26.50
2023-06-18T16:29:35.632Z,26.40
2023-06-18T16:32:06.133Z,26.40
2023-06-18T16:34:34.575Z,26.40
2023-06-18T16:37:06.221Z,26.40
2023-06-18T16:39:37.744Z,26.30
2023-06-18T16:42:06.868Z,26.30
2023-06-18T16:44:35.266Z,26.20
2023-06-18T16:47:03.652Z,26.10
2023-06-18T16:49:32.106Z,26.10
2023-06-18T16:52:02.871Z,26.10
2023-06-18T16:54:33.557Z,26.10
2023-06-18T16:57:03.393Z,26.10
2023-06-18T16:59:32.066Z,26.00
2023-06-18T17:02:03.638Z,26.00
2023-06-18T17:04:32.359Z,26.00
2023-06-18T17:07:03.043Z,26.00
2023-06-18T17:09:31.520Z,25.90
2023-06-18T17:11:59.916Z,25.90
2023-06-18T17:14:29.844Z,25.90
2023-06-18T17:16:58.269Z,25.80
2023-06-18T17:19:26.775Z,25.80
2023-06-18T17:21:57.330Z,25.90
2023-06-18T17:24:28.393Z,25.80
2023-06-18T17:26:56.986Z,25.80
2023-06-18T17:29:25.404Z,25.70
2023-06-18T17:31:58.122Z,25.60
2023-06-18T17:34:26.647Z,25.70
2023-06-18T17:36:55.190Z,25.60
2023-06-18T17:39:25.001Z,25.60
2023-06-18T17:41:53.528Z,25.60
2023-06-18T17:44:22.007Z,25.60
2023-06-18T17:46:50.597Z,25.60
2023-06-18T17:49:20.502Z,25.60
2023-06-18T17:51:50.720Z,25.50
2023-06-18T17:54:19.451Z,25.60
2023-06-18T17:56:47.900Z,25.70
2023-06-18T17:59:16.260Z,25.60
2023-06-18T18:01:45.137Z,25.50
2023-06-18T18:04:13.828Z,25.50
2023-06-18T18:06:43.664Z,25.40
2023-06-18T18:09:12.049Z,25.40
2023-06-18T18:11:40.468Z,25.40
2023-06-18T18:14:08.803Z,25.40
2023-06-18T18:16:39.361Z,25.30
2023-06-18T18:19:07.820Z,25.30
2023-06-18T18:21:36.237Z,25.20
2023-06-18T18:24:06.328Z,25.20
2023-06-18T18:26:47.911Z,25.20
2023-06-18T18:29:18.227Z,25.10
2023-06-18T18:31:48.986Z,25.10
2023-06-18T18:34:17.360Z,25.10
2023-06-18T18:36:45.720Z,25.10
2023-06-18T18:39:15.477Z,25.00
2023-06-18T18:41:46.152Z,25.10
2023-06-18T18:44:14.616Z,25.00
2023-06-18T18:46:43.095Z,24.90
2023-06-18T18:49:11.555Z,24.90
2023-06-18T18:51:40.051Z,24.90
2023-06-18T18:54:08.895Z,24.90
2023-06-18T18:56:39.097Z,24.80
2023-06-18T18:59:08.974Z,24.80
2023-06-18T19:01:42.763Z,24.80
2023-06-18T19:04:11.523Z,24.70
2023-06-18T19:06:39.982Z,24.70
2023-06-18T19:09:11.161Z,24.60
2023-06-18T19:11:41.928Z,24.60
2023-06-18T19:14:12.907Z,24.50
2023-06-18T19:16:41.283Z,24.40
2023-06-18T19:19:12.121Z,24.40
2023-06-18T19:21:40.621Z,24.40
2023-06-18T19:24:09.107Z,24.30
2023-06-18T19:26:37.582Z,24.30
2023-06-18T19:29:08.042Z,24.20
2023-06-18T19:31:36.788Z,24.10
2023-06-18T19:34:05.182Z,24.10
2023-06-18T19:36:37.357Z,24.00
2023-06-18T19:39:09.411Z,24.00
2023-06-18T19:41:40.483Z,24.00
2023-06-18T19:44:10.529Z,24.00
2023-06-18T19:46:45.466Z,24.00
2023-06-18T19:49:14.126Z,23.90
2023-06-18T19:51:42.904Z,23.90
2023-06-18T19:54:11.379Z,23.90
2023-06-18T19:56:39.800Z,23.70
2023-06-18T19:59:08.563Z,23.70
2023-06-18T20:01:39.199Z,23.60
2023-06-18T20:04:08.516Z,23.50
2023-06-18T20:06:37.678Z,23.50
2023-06-18T20:09:06.537Z,23.40
2023-06-18T20:11:36.278Z,23.30
2023-06-18T20:14:04.751Z,23.30
2023-06-18T20:16:35.588Z,23.10
2023-06-18T20:19:05.561Z,23.10
2023-06-18T20:21:37.052Z,23.10
2023-06-18T20:24:06.153Z,23.00
2023-06-18T20:26:35.811Z,23.00
2023-06-18T20:29:04.573Z,22.80
2023-06-18T20:31:33.759Z,22.70
2023-06-18T20:34:02.139Z,22.60
2023-06-18T20:36:32.416Z,22.50
2023-06-18T20:39:00.805Z,22.30
2023-06-18T20:41:29.686Z,22.40
2023-06-18T20:43:58.079Z,22.30
2023-06-18T20:46:26.570Z,22.30
2023-06-18T20:48:55.118Z,22.40
2023-06-18T20:51:23.962Z,22.30
2023-06-18T20:53:58.578Z,22.30
2023-06-18T20:56:29.669Z,22.40
2023-06-18T20:58:58.313Z,22.40
2023-06-18T21:01:27.269Z,22.30
2023-06-18T21:03:55.830Z,22.20
2023-06-18T21:06:24.187Z,22.20
2023-06-18T21:08:53.975Z,22.10
2023-06-18T21:11:28.987Z,22.10
2023-06-18T21:13:57.474Z,22.10
2023-06-18T21:16:25.876Z,22.10
2023-06-18T21:18:54.369Z,22.00
2023-06-18T21:21:22.784Z,22.00
2023-06-18T21:23:51.295Z,21.90
2023-06-18T21:26:21.177Z,21.90
2023-06-18T21:28:51.667Z,21.80
2023-06-18T21:31:22.295Z,21.70
2023-06-18T21:33:50.688Z,21.70
2023-06-18T21:36:19.050Z,21.60
2023-06-18T21:38:49.495Z,21.70
2023-06-18T21:41:18.160Z,21.60
2023-06-18T21:43:47.893Z,21.60
2023-06-18T21:46:16.341Z,21.50
2023-06-18T21:48:44.706Z,21.40
2023-06-18T21:51:13.204Z,21.30
2023-06-18T21:53:41.604Z,21.30
2023-06-18T21:56:12.780Z,21.20
2023-06-18T21:58:41.861Z,21.10
2023-06-18T22:01:11.684Z,21.20
2023-06-18T22:03:40.214Z,21.10
2023-06-18T22:06:09.743Z,21.00
2023-06-18T22:08:42.023Z,20.90
2023-06-18T22:11:10.471Z,20.90
2023-06-18T22:13:38.907Z,20.90
2023-06-18T22:16:07.499Z,20.90
2023-06-18T22:18:37.959Z,20.70
2023-06-18T22:21:06.568Z,20.70
2023-06-18T22:23:34.963Z,20.70
2023-06-18T22:26:05.835Z,20.60
2023-06-18T22:28:34.281Z,20.50
2023-06-18T22:31:02.897Z,20.30
2023-06-18T22:33:31.744Z,20.30
2023-06-18T22:36:01.671Z,20.20
2023-06-18T22:38:32.549Z,20.20
2023-06-18T22:41:02.980Z,20.20
2023-06-18T22:43:31.846Z,20.20
2023-06-18T22:46:01.339Z,20.00
2023-06-18T22:48:29.785Z,20.00
2023-06-18T22:50:58.255Z,20.00
2023-06-18T22:53:28.056Z,19.90
2023-06-18T22:55:58.840Z,19.90
2023-06-18T22:58:29.020Z,19.80
2023-06-18T23:01:00.025Z,19.80
2023-06-18T23:03:28.556Z,19.80
2023-06-18T23:05:57.049Z,19.80
2023-06-18T23:08:25.448Z,19.80
2023-06-18T23:10:55.486Z,19.80
2023-06-18T23:13:23.850Z,19.70
2023-06-18T23:15:52.273Z,19.70
2023-06-18T23:18:20.623Z,19.60
2023-06-18T23:20:49.315Z,19.50
2023-06-18T23:23:17.669Z,19.40
2023-06-18T23:25:46.169Z,19.20
2023-06-18T23:28:16.085Z,19.30
2023-06-18T23:30:47.569Z,19.20
2023-06-18T23:33:16.045Z,19.10
2023-06-18T23:35:44.913Z,19.00
2023-06-18T23:38:13.641Z,19.00
2023-06-18T23:40:42.350Z,18.80
2023-06-18T23:43:11.011Z,18.80
2023-06-18T23:45:41.573Z,18.80
2023-06-18T23:48:10.016Z,18.70
2023-06-18T23:50:38.400Z,18.60
2023-06-18T23:53:07.126Z,18.50
2023-06-18T23:55:37.822Z,18.40
2023-06-18T23:58:06.353Z,18.40
